Time;durP1;ratioP1;P1;durP2;ratioP2;P2;SDS_P1;SDS_P2;PMS_P1;PMS_P2;Temp;Humidity;BMP_temperature;BMP_pressure;BME280_temperature;BME280_humidity;BME280_pressure;Samples;Min_cycle;Max_cycle;Signal;HPM_P1;HPM_P2
2022/10/13 00:00:40;;;;;;;22.33;12.43;;;10.80;99.90;;;;;;5035867;28;20211;-80
2022/10/13 00:03:08;;;;;;;23.27;12.43;;;10.80;99.90;;;;;;5035782;28;20207;-80
2022/10/13 00:05:47;;;;;;;26.93;13.23;;;10.90;99.90;;;;;;5034548;28;20633;-80
2022/10/13 00:08:19;;;;;;;20.77;12.33;;;10.90;99.90;;;;;;5036868;28;20680;-79
2022/10/13 00:10:49;;;;;;;22.20;12.63;;;10.90;99.90;;;;;;5037937;28;20217;-79
2022/10/13 00:13:17;;;;;;;22.80;12.10;;;10.90;99.90;;;;;;5042761;28;20302;-82
2022/10/13 00:15:45;;;;;;;22.17;12.03;;;10.90;99.90;;;;;;5018347;28;20276;-82
2022/10/13 00:18:12;;;;;;;22.13;12.60;;;10.90;99.90;;;;;;5037727;28;20205;-79
2022/10/13 00:20:45;;;;;;;19.80;11.77;;;11.00;99.90;;;;;;5040475;28;20228;-80
2022/10/13 00:23:12;;;;;;;23.37;12.70;;;11.00;99.90;;;;;;5035414;28;20205;-80
2022/10/13 00:25:44;;;;;;;33.83;13.03;;;11.00;99.90;;;;;;5036241;28;20216;-80
2022/10/13 00:28:13;;;;;;;24.63;12.57;;;11.00;99.90;;;;;;5036736;28;20208;-81
2022/10/13 00:30:41;;;;;;;23.50;12.60;;;11.00;99.90;;;;;;5037135;28;20683;-80
2022/10/13 00:33:09;;;;;;;29.73;12.87;;;11.00;99.90;;;;;;5041135;28;20271;-80
2022/10/13 00:35:44;;;;;;;25.73;12.40;;;10.90;99.90;;;;;;5010323;28;20309;-79
2022/10/13 00:38:18;;;;;;;22.23;12.47;;;11.00;99.90;;;;;;5016590;28;20209;-79
2022/10/13 00:40:51;;;;;;;21.27;12.20;;;11.00;99.90;;;;;;5018063;28;21021;-82
2022/10/13 00:43:21;;;;;;;26.67;12.90;;;11.00;99.90;;;;;;5018814;28;20216;-82
2022/10/13 00:45:50;;;;;;;26.23;13.67;;;11.10;99.90;;;;;;5019819;28;20213;-80
2022/10/13 00:48:24;;;;;;;21.67;12.40;;;11.20;99.90;;;;;;5017793;28;20211;-80
2022/10/13 00:50:52;;;;;;;19.73;11.80;;;11.10;99.90;;;;;;5018902;28;20226;-81
2022/10/13 00:53:22;;;;;;;22.80;12.20;;;11.20;99.90;;;;;;5001143;28;20338;-81
2022/10/13 00:55:49;;;;;;;22.10;12.20;;;11.10;99.90;;;;;;5019460;28;20306;-81
2022/10/13 00:58:21;;;;;;;30.43;12.37;;;11.20;99.90;;;;;;5021843;28;21121;-79
2022/10/13 01:00:51;;;;;;;22.10;12.90;;;11.20;99.90;;;;;;5008514;28;20225;-80
2022/10/13 01:03:19;;;;;;;24.07;12.37;;;11.20;99.90;;;;;;5002464;28;20301;-80
2022/10/13 01:05:47;;;;;;;26.33;13.10;;;11.20;99.90;;;;;;4998066;28;20230;-81
2022/10/13 01:08:15;;;;;;;25.03;12.67;;;11.20;99.90;;;;;;5022520;28;20617;-79
2022/10/13 01:10:56;;;;;;;25.13;13.73;;;11.20;99.90;;;;;;4999661;28;20300;-80
2022/10/13 01:13:47;;;;;;;26.27;13.43;;;11.20;99.90;;;;;;5013280;28;20246;-79
2022/10/13 01:16:39;;;;;;;23.13;12.90;;;11.20;99.90;;;;;;5020469;28;20262;-80
2022/10/13 01:19:24;;;;;;;20.47;11.93;;;11.20;99.90;;;;;;5000462;28;20300;-78
2022/10/13 01:21:56;;;;;;;22.30;12.30;;;11.30;99.90;;;;;;4999382;28;20244;-80
2022/10/13 01:24:46;;;;;;;23.43;12.90;;;11.30;99.90;;;;;;5024226;28;20296;-80
2022/10/13 01:27:38;;;;;;;21.33;12.43;;;11.30;99.90;;;;;;5004233;28;20213;-82
2022/10/13 01:30:08;;;;;;;21.33;12.23;;;11.30;99.90;;;;;;5001778;28;20220;-80
2022/10/13 01:33:01;;;;;;;23.67;12.87;;;11.40;99.90;;;;;;5019473;28;20213;-81
2022/10/13 01:35:49;;;;;;;22.33;12.93;;;11.40;99.90;;;;;;4999919;28;20244;-80
2022/10/13 01:39:03;;;;;;;26.60;13.10;;;11.40;99.90;;;;;;5013055;28;20300;-80
2022/10/13 01:41:38;;;;;;;24.27;12.17;;;11.50;99.90;;;;;;5006932;28;20237;-81
2022/10/13 01:44:15;;;;;;;23.53;13.10;;;11.40;99.90;;;;;;5025093;28;20212;-81
2022/10/13 01:46:44;;;;;;;21.93;12.23;;;11.50;99.90;;;;;;5004149;28;20792;-80
2022/10/13 01:49:14;;;;;;;21.53;13.23;;;11.50;99.90;;;;;;5019657;28;20257;-81
2022/10/13 01:51:43;;;;;;;26.47;13.73;;;11.50;99.90;;;;;;5020346;28;20210;-81
2022/10/13 01:54:10;;;;;;;25.47;12.87;;;11.60;99.90;;;;;;5020624;28;20822;-80
2022/10/13 01:56:37;;;;;;;27.23;12.27;;;11.60;99.90;;;;;;5003484;28;20669;-80
2022/10/13 01:59:09;;;;;;;22.73;13.63;;;11.70;99.90;;;;;;5015599;28;20250;-81
2022/10/13 02:01:39;;;;;;;22.67;12.33;;;11.70;99.90;;;;;;5010769;28;20272;-80
2022/10/13 02:04:20;;;;;;;24.00;13.40;;;11.80;99.90;;;;;;5017868;28;20729;-79
2022/10/13 02:07:09;;;;;;;23.13;14.23;;;11.80;99.90;;;;;;5016627;28;20220;-80
2022/10/13 02:09:55;;;;;;;27.20;15.43;;;11.80;99.90;;;;;;5022365;28;20198;-81
2022/10/13 02:12:33;;;;;;;25.93;14.20;;;11.90;99.90;;;;;;5008972;28;20301;-79
2022/10/13 02:15:02;;;;;;;25.57;13.97;;;11.70;99.90;;;;;;5019102;28;20233;-80
2022/10/13 02:17:30;;;;;;;26.27;13.00;;;11.90;99.90;;;;;;5022735;28;20232;-81
2022/10/13 02:19:57;;;;;;;23.23;13.30;;;11.90;99.90;;;;;;5014322;28;20242;-80
2022/10/13 02:22:29;;;;;;;23.03;12.60;;;11.90;99.90;;;;;;5022519;28;20296;-79
2022/10/13 02:24:56;;;;;;;24.63;12.70;;;12.10;99.90;;;;;;5018647;28;20210;-80
2022/10/13 02:27:23;;;;;;;24.63;13.10;;;11.90;99.90;;;;;;5024317;28;20297;-80
2022/10/13 02:29:56;;;;;;;22.90;13.47;;;12.00;99.90;;;;;;5002423;28;20659;-79
2022/10/13 02:32:23;;;;;;;22.37;13.43;;;12.00;99.90;;;;;;5001146;28;20202;-80
2022/10/13 02:34:50;;;;;;;21.83;12.23;;;11.90;99.90;;;;;;5018145;28;20321;-79
2022/10/13 02:37:17;;;;;;;25.40;12.77;;;12.10;99.90;;;;;;5017489;28;20226;-79
2022/10/13 02:39:44;;;;;;;23.23;13.77;;;12.10;99.90;;;;;;5025896;28;20199;-79
2022/10/13 02:42:11;;;;;;;25.80;15.97;;;12.00;99.90;;;;;;5006469;28;20358;-81
2022/10/13 02:44:39;;;;;;;37.20;18.30;;;12.10;99.90;;;;;;5016799;28;20320;-81
2022/10/13 02:47:05;;;;;;;34.03;16.10;;;12.20;99.90;;;;;;5020014;28;20317;-80
2022/10/13 02:49:32;;;;;;;34.60;16.20;;;12.20;99.90;;;;;;4998666;28;20253;-79
2022/10/13 02:51:59;;;;;;;26.07;13.90;;;12.20;99.90;;;;;;4999272;28;20213;-80
2022/10/13 02:54:26;;;;;;;28.97;14.83;;;12.30;99.90;;;;;;5021637;28;20207;-79
2022/10/13 02:56:53;;;;;;;31.60;15.27;;;12.30;99.90;;;;;;5022274;28;20436;-79
2022/10/13 02:59:21;;;;;;;34.00;14.77;;;12.30;99.90;;;;;;5018377;28;20252;-80
2022/10/13 03:01:48;;;;;;;26.23;13.77;;;12.40;99.90;;;;;;5024052;28;20207;-80
2022/10/13 03:04:15;;;;;;;30.83;15.97;;;12.40;99.90;;;;;;5020583;28;20643;-80
2022/10/13 03:06:42;;;;;;;26.80;14.20;;;12.60;99.90;;;;;;5015942;28;20265;-80
2022/10/13 03:09:10;;;;;;;29.97;14.40;;;12.50;99.90;;;;;;5018837;28;20244;-80
2022/10/13 03:11:36;;;;;;;29.97;14.80;;;12.50;99.90;;;;;;5029997;28;20979;-81
2022/10/13 03:14:03;;;;;;;29.23;14.53;;;12.50;99.90;;;;;;5018500;28;20287;-80
2022/10/13 03:16:30;;;;;;;26.23;13.33;;;12.50;99.90;;;;;;5021811;28;20320;-80
2022/10/13 03:18:58;;;;;;;26.33;13.77;;;12.50;99.90;;;;;;5015869;28;21114;-81
2022/10/13 03:21:25;;;;;;;23.07;13.20;;;12.50;99.90;;;;;;5021405;28;21081;-80
2022/10/13 03:23:53;;;;;;;26.37;12.50;;;12.50;99.90;;;;;;5019860;28;20677;-79
2022/10/13 03:26:20;;;;;;;25.17;13.30;;;12.60;99.90;;;;;;5017579;28;20214;-80
2022/10/13 03:28:50;;;;;;;27.87;13.10;;;12.60;99.90;;;;;;5017150;28;20246;-81
2022/10/13 03:31:17;;;;;;;22.67;12.27;;;12.60;99.90;;;;;;5013920;28;20240;-80
2022/10/13 03:33:44;;;;;;;26.17;13.33;;;12.60;99.90;;;;;;5016701;28;20234;-81
2022/10/13 03:36:15;;;;;;;23.30;12.57;;;12.60;99.90;;;;;;5021108;28;20276;-81
2022/10/13 03:38:42;;;;;;;22.57;12.13;;;12.60;99.90;;;;;;5007104;28;20211;-79
2022/10/13 03:41:15;;;;;;;24.03;13.30;;;12.60;99.90;;;;;;5018127;28;20193;-80
2022/10/13 03:43:43;;;;;;;25.00;12.53;;;12.60;99.90;;;;;;5018474;28;20241;-81
2022/10/13 03:46:13;;;;;;;25.03;12.97;;;12.70;99.90;;;;;;5020054;28;20269;-79
2022/10/13 03:48:40;;;;;;;20.93;12.13;;;12.70;99.90;;;;;;5002291;28;20275;-79
2022/10/13 03:51:13;;;;;;;30.03;13.77;;;12.70;99.90;;;;;;5028868;28;20222;-78
2022/10/13 03:53:41;;;;;;;26.63;14.67;;;12.70;99.90;;;;;;5021652;28;20234;-80
2022/10/13 03:56:16;;;;;;;24.67;12.97;;;12.70;99.90;;;;;;5027984;28;20285;-77
2022/10/13 03:58:43;;;;;;;22.47;13.27;;;12.70;99.90;;;;;;5027626;28;20317;-78
2022/10/13 04:01:11;;;;;;;23.70;13.97;;;12.70;99.90;;;;;;5025690;28;20198;-79
2022/10/13 04:03:38;;;;;;;23.10;13.33;;;12.80;99.90;;;;;;5018356;28;20730;-79
2022/10/13 04:06:06;;;;;;;22.33;13.00;;;12.80;99.90;;;;;;5022093;28;20237;-79
2022/10/13 04:08:33;;;;;;;22.80;13.70;;;12.80;99.90;;;;;;4996893;28;20234;-80
2022/10/13 04:11:09;;;;;;;26.70;13.67;;;12.70;99.90;;;;;;5022308;28;20218;-80
2022/10/13 04:13:38;;;;;;;24.83;13.50;;;12.90;99.90;;;;;;5007521;28;20321;-80
2022/10/13 04:16:14;;;;;;;22.00;12.73;;;12.70;99.90;;;;;;5017250;28;20531;-79
2022/10/13 04:18:41;;;;;;;23.27;13.60;;;12.80;99.90;;;;;;5018790;28;20287;-81
2022/10/13 04:21:13;;;;;;;23.00;13.57;;;12.70;99.90;;;;;;5019941;28;20229;-80
2022/10/13 04:23:40;;;;;;;26.80;15.07;;;12.70;99.90;;;;;;5018423;28;20211;-79
2022/10/13 04:26:18;;;;;;;26.47;14.20;;;12.80;99.90;;;;;;5015858;28;20655;-81
2022/10/13 04:28:47;;;;;;;26.83;13.77;;;12.80;99.90;;;;;;5002166;28;20233;-79
2022/10/13 04:31:13;;;;;;;26.87;13.60;;;12.70;99.90;;;;;;5020893;28;20194;-80
2022/10/13 04:33:41;;;;;;;27.90;14.80;;;12.70;99.90;;;;;;5021891;28;20325;-80
2022/10/13 04:36:10;;;;;;;24.80;14.33;;;12.80;99.90;;;;;;5022716;28;20206;-80
2022/10/13 04:38:39;;;;;;;22.60;13.63;;;12.80;99.90;;;;;;5004933;28;20306;-79
2022/10/13 04:41:07;;;;;;;23.77;14.00;;;12.80;99.90;;;;;;5019662;28;20256;-81
2022/10/13 04:43:34;;;;;;;25.57;15.17;;;12.70;99.90;;;;;;5017412;28;20717;-81
2022/10/13 04:46:22;;;;;;;24.27;13.97;;;12.80;99.90;;;;;;5019002;28;20194;-80
2022/10/13 04:48:50;;;;;;;33.67;15.17;;;12.80;99.90;;;;;;5020303;28;20321;-79
2022/10/13 04:51:19;;;;;;;27.77;14.73;;;12.80;99.90;;;;;;5017671;28;20212;-81
2022/10/13 04:53:47;;;;;;;25.63;13.90;;;12.80;99.90;;;;;;5007571;28;20379;-79
2022/10/13 04:56:16;;;;;;;24.70;14.27;;;12.80;99.90;;;;;;5020898;28;20206;-80
2022/10/13 04:58:44;;;;;;;30.67;15.23;;;12.90;99.90;;;;;;5028430;28;20316;-80
2022/10/13 05:01:15;;;;;;;24.47;13.70;;;12.90;99.90;;;;;;5028707;28;20609;-81
2022/10/13 05:03:53;;;;;;;28.37;14.20;;;13.60;99.90;;;;;;5016655;28;20213;-81
2022/10/13 05:06:30;;;;;;;25.37;13.87;;;12.50;99.90;;;;;;5033700;28;20202;-78
2022/10/13 05:08:58;;;;;;;24.47;15.07;;;13.00;99.90;;;;;;5045172;28;20208;-80
2022/10/13 05:11:26;;;;;;;25.00;14.90;;;13.60;99.90;;;;;;5038471;28;20212;-80
2022/10/13 05:13:54;;;;;;;25.83;14.83;;;13.10;99.90;;;;;;5000496;28;20302;-81
2022/10/13 05:16:21;;;;;;;26.30;15.13;;;12.90;99.90;;;;;;5003992;28;20207;-82
2022/10/13 05:18:49;;;;;;;28.23;14.73;;;13.70;99.90;;;;;;5009479;28;20201;-81
2022/10/13 05:21:19;;;;;;;25.57;13.47;;;12.60;99.90;;;;;;5005553;28;20218;-80
2022/10/13 05:23:46;;;;;;;34.40;15.13;;;12.80;99.90;;;;;;5020051;28;20223;-80
2022/10/13 05:26:15;;;;;;;30.00;15.23;;;12.80;99.90;;;;;;5029281;28;20305;-80
2022/10/13 05:28:43;;;;;;;25.83;14.40;;;13.60;99.90;;;;;;5024843;28;20230;-81
2022/10/13 05:31:15;;;;;;;27.30;15.43;;;12.80;99.90;;;;;;5005060;28;20627;-80
2022/10/13 05:33:44;;;;;;;27.93;15.23;;;12.80;99.90;;;;;;5022419;28;20230;-80
2022/10/13 05:36:20;;;;;;;25.53;14.47;;;12.70;99.90;;;;;;5006638;28;20228;-80
2022/10/13 05:38:51;;;;;;;27.17;15.07;;;12.50;99.90;;;;;;5019876;28;20341;-80
2022/10/13 05:41:19;;;;;;;26.53;14.10;;;13.10;99.90;;;;;;5005797;28;20213;-81
2022/10/13 05:43:46;;;;;;;26.60;15.13;;;13.10;99.90;;;;;;5018321;28;20289;-80
2022/10/13 05:46:13;;;;;;;25.33;14.17;;;13.50;99.90;;;;;;5023879;28;20288;-81
2022/10/13 05:48:40;;;;;;;35.50;16.93;;;13.30;99.90;;;;;;5021515;28;20256;-80
2022/10/13 05:51:16;;;;;;;25.93;14.57;;;13.00;99.90;;;;;;5019604;28;20900;-80
2022/10/13 05:53:49;;;;;;;33.43;15.53;;;12.90;99.90;;;;;;5032637;28;20212;-80
2022/10/13 05:56:28;;;;;;;34.37;15.37;;;13.40;99.90;;;;;;5031185;28;20209;-79
2022/10/13 05:58:59;;;;;;;30.67;16.10;;;12.70;99.90;;;;;;5003443;28;20713;-80
2022/10/13 06:01:30;;;;;;;29.23;16.87;;;12.80;99.90;;;;;;5029967;28;20316;-78
2022/10/13 06:04:02;;;;;;;25.83;15.63;;;13.60;99.90;;;;;;5009052;28;20636;-79
2022/10/13 06:06:29;;;;;;;30.83;15.20;;;13.70;99.90;;;;;;5025618;28;20225;-79
2022/10/13 06:08:58;;;;;;;34.57;16.60;;;13.90;99.90;;;;;;5006316;28;20257;-78
2022/10/13 06:11:25;;;;;;;29.33;15.33;;;13.40;99.90;;;;;;5029316;28;20263;-80
2022/10/13 06:13:52;;;;;;;22.30;13.83;;;13.40;99.90;;;;;;5017799;28;20225;-78
2022/10/13 06:16:19;;;;;;;30.27;15.53;;;13.70;99.90;;;;;;5026177;28;20202;-78
2022/10/13 06:18:46;;;;;;;30.47;15.60;;;13.20;99.90;;;;;;5023166;28;20301;-79
2022/10/13 06:21:12;;;;;;;33.53;15.57;;;13.20;99.90;;;;;;5007448;28;20216;-80
2022/10/13 06:23:39;;;;;;;29.00;15.57;;;13.70;99.90;;;;;;5021647;28;20205;-79
2022/10/13 06:26:08;;;;;;;28.10;14.67;;;13.30;99.90;;;;;;5026257;28;20210;-81
2022/10/13 06:28:34;;;;;;;26.97;14.70;;;13.70;99.90;;;;;;5024693;28;20229;-80
2022/10/13 06:31:06;;;;;;;30.87;15.33;;;13.40;99.90;;;;;;5031600;28;20198;-79
2022/10/13 06:33:33;;;;;;;29.20;14.80;;;13.30;99.90;;;;;;5026079;28;20265;-79
2022/10/13 06:36:04;;;;;;;31.23;15.67;;;13.50;99.90;;;;;;5023922;28;20304;-79
2022/10/13 06:38:34;;;;;;;25.60;15.03;;;13.40;99.90;;;;;;5031345;28;20575;-80
2022/10/13 06:41:04;;;;;;;28.73;13.97;;;13.40;99.90;;;;;;5016606;28;20281;-80
2022/10/13 06:43:32;;;;;;;26.00;13.97;;;13.40;99.90;;;;;;5011855;28;20210;-80
2022/10/13 06:46:06;;;;;;;35.80;22.13;;;13.40;99.90;;;;;;5006714;28;20197;-80
2022/10/13 06:48:38;;;;;;;29.10;15.47;;;13.40;99.90;;;;;;5020074;28;20205;-79
2022/10/13 06:51:08;;;;;;;31.20;15.43;;;13.50;99.90;;;;;;5022845;28;20302;-81
2022/10/13 06:53:36;;;;;;;30.00;15.63;;;13.50;99.90;;;;;;5020268;28;20298;-82
2022/10/13 06:56:07;;;;;;;30.53;16.47;;;13.50;99.90;;;;;;5025388;28;20203;-83
2022/10/13 06:58:35;;;;;;;27.10;14.77;;;13.50;99.90;;;;;;5003472;28;20317;-80
2022/10/13 07:01:04;;;;;;;24.93;15.20;;;13.50;99.90;;;;;;5024023;28;20234;-80
2022/10/13 07:03:31;;;;;;;31.23;14.37;;;13.50;99.90;;;;;;5000743;28;20198;-80
2022/10/13 07:06:03;;;;;;;26.17;14.70;;;13.50;99.90;;;;;;5008142;28;20225;-81
2022/10/13 07:08:30;;;;;;;30.43;14.17;;;13.50;99.90;;;;;;5018006;28;20234;-81
2022/10/13 07:10:57;;;;;;;24.73;14.80;;;13.50;99.90;;;;;;5002661;28;20266;-80
2022/10/13 07:13:24;;;;;;;26.90;14.03;;;13.70;99.90;;;;;;5020661;28;20734;-79
2022/10/13 07:15:51;;;;;;;25.97;14.73;;;13.80;99.90;;;;;;5020064;28;20198;-80
2022/10/13 07:18:18;;;;;;;27.50;14.43;;;13.90;99.90;;;;;;5017649;28;20261;-79
2022/10/13 07:20:45;;;;;;;33.37;15.73;;;13.90;99.90;;;;;;4999122;28;20220;-81
2022/10/13 07:23:12;;;;;;;30.67;14.77;;;13.80;99.90;;;;;;5019321;28;20198;-80
2022/10/13 07:25:40;;;;;;;32.97;15.77;;;13.90;99.90;;;;;;5017664;28;20198;-79
2022/10/13 07:28:06;;;;;;;32.53;14.63;;;14.40;99.90;;;;;;5015330;28;20226;-79
2022/10/13 07:30:33;;;;;;;30.40;14.73;;;13.90;99.90;;;;;;5020499;28;20218;-81
2022/10/13 07:33:00;;;;;;;32.83;15.37;;;14.00;99.90;;;;;;5020337;28;20616;-80
2022/10/13 07:35:27;;;;;;;33.97;15.63;;;13.90;99.90;;;;;;5016978;28;20281;-80
2022/10/13 07:37:56;;;;;;;26.40;14.70;;;14.10;99.90;;;;;;5021084;28;20597;-81
2022/10/13 07:40:23;;;;;;;27.43;14.53;;;14.20;99.90;;;;;;5019848;28;20303;-79
2022/10/13 07:42:50;;;;;;;27.87;14.97;;;13.60;99.90;;;;;;5000451;28;20296;-80
2022/10/13 07:45:17;;;;;;;30.43;16.10;;;14.00;99.90;;;;;;5000193;28;20217;-79
2022/10/13 07:47:44;;;;;;;25.00;15.17;;;14.00;99.90;;;;;;5017627;28;20240;-80
2022/10/13 07:50:11;;;;;;;27.57;15.23;;;14.10;99.90;;;;;;5014128;28;20363;-80
2022/10/13 07:52:38;;;;;;;29.47;15.17;;;14.10;99.90;;;;;;5017570;28;20228;-80
2022/10/13 07:55:05;;;;;;;21.27;14.07;;;14.10;99.90;;;;;;5017449;28;20317;-79
2022/10/13 07:57:32;;;;;;;25.40;14.03;;;14.20;99.90;;;;;;5000083;28;20226;-79
2022/10/13 07:59:59;;;;;;;26.43;13.60;;;14.20;99.90;;;;;;5022860;28;20610;-80
2022/10/13 08:02:26;;;;;;;25.67;13.93;;;14.30;99.90;;;;;;5018699;28;20275;-79
2022/10/13 08:04:52;;;;;;;27.47;14.43;;;14.30;99.90;;;;;;5016629;28;20231;-79
2022/10/13 08:07:19;;;;;;;27.20;14.80;;;14.30;99.90;;;;;;5017872;28;20670;-79
2022/10/13 08:09:46;;;;;;;26.60;13.70;;;14.30;99.90;;;;;;5005051;28;20297;-80
2022/10/13 08:12:13;;;;;;;23.47;13.77;;;14.50;99.90;;;;;;4997854;28;20293;-79
2022/10/13 08:14:41;;;;;;;26.93;14.37;;;14.30;99.90;;;;;;5001467;28;20334;-79
2022/10/13 08:17:09;;;;;;;26.60;15.43;;;14.30;99.90;;;;;;5016110;28;20201;-82
2022/10/13 08:19:35;;;;;;;25.73;14.90;;;14.30;99.90;;;;;;4999849;28;20226;-78
2022/10/13 08:22:02;;;;;;;23.33;14.30;;;14.20;99.90;;;;;;4995180;28;20222;-79
2022/10/13 08:24:35;;;;;;;29.17;16.13;;;14.20;99.90;;;;;;5007944;28;20214;-81
2022/10/13 08:27:08;;;;;;;25.43;15.77;;;14.20;99.90;;;;;;4998603;28;20198;-78
2022/10/13 08:29:35;;;;;;;28.17;15.30;;;14.20;99.90;;;;;;5019869;28;20214;-79
2022/10/13 08:32:02;;;;;;;27.63;14.77;;;14.70;99.90;;;;;;5021218;28;20497;-78
2022/10/13 08:34:29;;;;;;;26.13;15.00;;;14.30;99.90;;;;;;5002088;28;20695;-80
2022/10/13 08:36:56;;;;;;;26.43;14.40;;;14.60;99.90;;;;;;5024136;28;20205;-81
2022/10/13 08:39:24;;;;;;;31.17;15.93;;;14.50;99.90;;;;;;5023014;28;20292;-80
2022/10/13 08:41:51;;;;;;;31.53;16.33;;;14.50;99.90;;;;;;5020786;28;20206;-79
2022/10/13 08:44:41;;;;;;;27.90;16.43;;;14.30;99.90;;;;;;5024136;28;20275;-80
2022/10/13 08:47:51;;;;;;;27.37;16.07;;;14.60;99.90;;;;;;5022115;28;20206;-81
2022/10/13 08:50:23;;;;;;;25.33;15.83;;;14.40;99.90;;;;;;5010332;28;20253;-80
2022/10/13 08:53:03;;;;;;;29.03;16.97;;;14.40;99.90;;;;;;5004589;28;20206;-79
2022/10/13 08:55:48;;;;;;;27.03;16.23;;;14.70;99.90;;;;;;5021185;28;20691;-79
2022/10/13 08:58:25;;;;;;;28.37;16.33;;;14.50;99.90;;;;;;5021488;28;20225;-79
2022/10/13 09:01:07;;;;;;;31.10;16.07;;;14.60;99.90;;;;;;5008483;28;20292;-80
2022/10/13 09:03:49;;;;;;;25.47;15.13;;;14.60;99.90;;;;;;5005700;28;20684;-80
2022/10/13 09:06:26;;;;;;;26.73;15.90;;;14.70;99.90;;;;;;5021924;28;20264;-79
2022/10/13 09:09:08;;;;;;;28.60;16.60;;;14.70;99.90;;;;;;5022178;28;20241;-81
2022/10/13 09:11:37;;;;;;;28.07;17.40;;;14.80;99.90;;;;;;5020987;28;20292;-79
2022/10/13 09:14:22;;;;;;;24.43;16.43;;;14.80;99.90;;;;;;5019897;28;20325;-81
2022/10/13 09:16:51;;;;;;;28.60;17.50;;;14.70;99.90;;;;;;5018795;28;20202;-81
2022/10/13 09:19:32;;;;;;;26.50;17.23;;;14.70;99.90;;;;;;5019212;28;20238;-81
2022/10/13 09:22:23;;;;;;;32.40;18.00;;;14.70;99.90;;;;;;5015629;28;20289;-79
2022/10/13 09:25:21;;;;;;;33.50;20.50;;;14.80;99.90;;;;;;5020776;28;20237;-79
2022/10/13 09:27:51;;;;;;;30.17;19.07;;;14.60;99.90;;;;;;5003283;28;20585;-80
2022/10/13 09:30:27;;;;;;;31.13;17.90;;;14.60;99.90;;;;;;5019401;28;20226;-79
2022/10/13 09:33:07;;;;;;;31.10;19.13;;;14.70;99.90;;;;;;5022697;28;21019;-79
2022/10/13 09:35:44;;;;;;;33.20;18.70;;;14.70;99.90;;;;;;5022706;28;20294;-80
2022/10/13 09:38:21;;;;;;;31.10;19.30;;;14.80;99.90;;;;;;5021065;28;20234;-80
2022/10/13 09:41:11;;;;;;;35.53;19.57;;;14.80;99.90;;;;;;5002197;28;20210;-81
2022/10/13 09:43:46;;;;;;;34.33;20.00;;;14.80;99.90;;;;;;5020926;28;20206;-79
2022/10/13 09:46:32;;;;;;;30.37;17.70;;;14.90;99.90;;;;;;5026367;28;20213;-79
2022/10/13 09:49:36;;;;;;;29.20;18.60;;;15.00;99.90;;;;;;5020392;28;20292;-79
2022/10/13 09:52:05;;;;;;;27.88;18.30;;;15.10;99.90;;;;;;5022546;28;20675;-78
2022/10/13 09:54:37;;;;;;;31.47;18.07;;;15.30;99.90;;;;;;5022370;28;20577;-81
2022/10/13 09:57:13;;;;;;;30.93;17.37;;;15.80;99.90;;;;;;5021123;28;20243;-80
2022/10/13 09:59:45;;;;;;;25.17;17.15;;;15.50;99.90;;;;;;5014143;28;20237;-78
2022/10/13 10:02:27;;;;;;;25.95;17.13;;;15.50;99.90;;;;;;5016833;28;20210;-79
2022/10/13 10:04:58;;;;;;;26.67;15.75;;;15.90;99.90;;;;;;5004977;28;20249;-79
2022/10/13 10:07:30;;;;;;;26.90;16.23;;;15.90;99.90;;;;;;5017999;28;20230;-80
2022/10/13 10:10:04;;;;;;;23.70;15.93;;;16.10;99.90;;;;;;5025731;28;20698;-78
2022/10/13 10:12:35;;;;;;;22.17;15.18;;;16.30;99.90;;;;;;5021115;28;20772;-79
2022/10/13 10:15:06;;;;;;;22.90;15.23;;;16.30;99.90;;;;;;5021396;28;20203;-79
2022/10/13 10:17:45;;;;;;;25.92;14.73;;;16.30;99.90;;;;;;5021028;28;20244;-79
2022/10/13 10:20:30;;;;;;;23.58;14.35;;;16.30;99.90;;;;;;5020831;28;20243;-77
2022/10/13 10:23:10;;;;;;;23.48;15.52;;;16.10;99.90;;;;;;5018545;28;20202;-78
2022/10/13 10:25:38;;;;;;;21.70;14.93;;;16.50;99.90;;;;;;5018127;28;20670;-79
2022/10/13 10:28:43;;;;;;;22.58;16.42;;;16.30;99.90;;;;;;5017380;28;20313;-78
2022/10/13 10:31:27;;;;;;;26.38;15.80;;;16.10;99.90;;;;;;5003759;28;20210;-78
2022/10/13 10:34:26;;;;;;;25.27;16.60;;;16.10;99.90;;;;;;5018321;28;20226;-78
2022/10/13 10:36:59;;;;;;;26.83;15.80;;;16.10;99.90;;;;;;5020501;28;20587;-78
2022/10/13 10:39:54;;;;;;;28.00;16.15;;;16.10;99.90;;;;;;5018100;28;20241;-79
2022/10/13 10:42:39;;;;;;;27.02;16.17;;;16.10;99.90;;;;;;5020555;28;20206;-77
2022/10/13 10:45:16;;;;;;;25.48;15.38;;;16.10;99.90;;;;;;5020200;28;20689;-78
2022/10/13 10:47:47;;;;;;;22.85;15.70;;;16.20;99.90;;;;;;5018073;28;20237;-78
2022/10/13 10:50:17;;;;;;;23.58;15.15;;;16.20;99.90;;;;;;5004788;28;20667;-78
2022/10/13 10:52:49;;;;;;;21.45;13.77;;;16.30;99.90;;;;;;5022223;28;20276;-78
2022/10/13 10:55:28;;;;;;;22.25;13.65;;;16.30;99.90;;;;;;5018323;28;20230;-78
2022/10/13 10:58:37;;;;;;;21.38;13.77;;;16.30;99.90;;;;;;5019996;28;20203;-78
2022/10/13 11:01:17;;;;;;;20.30;13.23;;;16.40;99.90;;;;;;4988394;28;20217;-76
2022/10/13 11:04:11;;;;;;;24.85;12.88;;;16.50;99.90;;;;;;5015120;28;20240;-78
2022/10/13 11:06:38;;;;;;;24.23;12.65;;;16.50;99.90;;;;;;5019722;28;20253;-78
2022/10/13 11:09:11;;;;;;;27.02;13.23;;;16.40;99.90;;;;;;5023449;28;20277;-77
2022/10/13 11:11:41;;;;;;;20.08;12.95;;;16.50;99.90;;;;;;5018212;28;20234;-77
2022/10/13 11:14:08;;;;;;;23.73;13.98;;;16.50;99.90;;;;;;5023274;28;20257;-78
2022/10/13 11:16:40;;;;;;;21.77;13.32;;;16.50;99.90;;;;;;5024552;28;20308;-79
2022/10/13 11:19:07;;;;;;;19.73;12.25;;;16.60;99.90;;;;;;5019615;28;20341;-80
2022/10/13 11:21:57;;;;;;;22.75;12.75;;;17.40;99.90;;;;;;5020581;28;20244;-80
2022/10/13 11:24:33;;;;;;;20.45;12.60;;;16.80;99.90;;;;;;5015622;28;20304;-78
2022/10/13 11:27:06;;;;;;;17.23;11.18;;;16.80;99.90;;;;;;5016628;28;20264;-78
2022/10/13 11:30:00;;;;;;;21.20;11.15;;;17.40;99.90;;;;;;5021462;28;20233;-79
2022/10/13 11:32:30;;;;;;;18.75;11.10;;;17.00;99.90;;;;;;5010153;28;20655;-79
2022/10/13 11:35:06;;;;;;;24.60;12.77;;;17.60;99.90;;;;;;5034893;28;20256;-78
2022/10/13 11:37:35;;;;;;;22.42;11.68;;;17.20;99.90;;;;;;5030667;28;20210;-80
2022/10/13 11:40:21;;;;;;;19.90;11.02;;;17.20;99.90;;;;;;5040801;28;20659;-78
2022/10/13 11:43:01;;;;;;;19.00;8.90;;;17.20;99.90;;;;;;5039627;28;20723;-77
2022/10/13 11:45:35;;;;;;;16.17;8.88;;;17.20;99.90;;;;;;5037728;28;20212;-82
2022/10/13 11:48:32;;;;;;;16.67;8.55;;;17.10;99.90;;;;;;5025535;28;20556;-80
2022/10/13 11:51:31;;;;;;;21.42;9.00;;;17.20;99.90;;;;;;5033855;28;20264;-81
2022/10/13 11:54:29;;;;;;;19.38;9.60;;;17.10;99.90;;;;;;5038673;28;20704;-79
2022/10/13 11:56:57;;;;;;;19.13;10.05;;;17.10;99.90;;;;;;5043311;28;20690;-78
2022/10/13 11:59:29;;;;;;;17.90;10.23;;;16.90;99.90;;;;;;5045284;28;20756;-78
2022/10/13 12:01:57;;;;;;;22.02;10.20;;;16.90;99.90;;;;;;5035390;28;20296;-79
2022/10/13 12:04:27;;;;;;;16.38;9.98;;;16.90;99.90;;;;;;5031980;28;20710;-78
2022/10/13 12:07:00;;;;;;;20.73;11.35;;;16.70;99.90;;;;;;5038785;28;20213;-78
2022/10/13 12:09:30;;;;;;;22.35;12.00;;;16.80;99.90;;;;;;5039501;28;20247;-79
2022/10/13 12:12:11;;;;;;;22.73;12.80;;;16.80;99.90;;;;;;5037514;28;20212;-78
2022/10/13 12:14:42;;;;;;;19.17;12.00;;;16.80;99.90;;;;;;5037366;28;20288;-79
2022/10/13 12:17:30;;;;;;;20.23;13.27;;;16.80;99.90;;;;;;5036216;28;20236;-78
2022/10/13 12:20:00;;;;;;;23.15;13.25;;;16.80;99.90;;;;;;5037715;28;20312;-79
2022/10/13 12:22:27;;;;;;;22.33;13.18;;;16.60;99.90;;;;;;5034680;28;20666;-78
2022/10/13 12:24:58;;;;;;;26.17;14.35;;;16.60;99.90;;;;;;5037417;28;20220;-80
2022/10/13 12:27:41;;;;;;;24.95;14.52;;;16.90;99.90;;;;;;5034587;28;20309;-80
2022/10/13 12:30:28;;;;;;;25.33;14.70;;;16.60;99.90;;;;;;5036686;28;20284;-78
2022/10/13 12:32:58;;;;;;;24.85;13.68;;;16.50;99.90;;;;;;5036665;28;20710;-79
2022/10/13 12:35:31;;;;;;;22.08;14.32;;;16.50;99.90;;;;;;5033980;28;20214;-77
2022/10/13 12:38:02;;;;;;;26.20;13.90;;;16.50;99.90;;;;;;5036782;28;20677;-78
2022/10/13 12:40:29;;;;;;;21.10;13.18;;;16.50;99.90;;;;;;5020236;28;20645;-78
2022/10/13 12:42:56;;;;;;;21.80;13.80;;;16.40;99.90;;;;;;5037074;28;20619;-79
2022/10/13 12:45:30;;;;;;;20.70;13.13;;;16.20;99.90;;;;;;5039003;28;20711;-78
2022/10/13 12:47:57;;;;;;;26.25;13.25;;;16.50;99.90;;;;;;5036822;28;20634;-78
2022/10/13 12:50:29;;;;;;;20.98;12.20;;;16.40;99.90;;;;;;5039037;28;20256;-78
2022/10/13 12:53:07;;;;;;;21.40;12.38;;;16.40;99.90;;;;;;5039667;28;20610;-77
2022/10/13 12:55:54;;;;;;;24.38;12.38;;;16.40;99.90;;;;;;5036650;28;20579;-78